sensor_id;sensor_type;location;lat;lon;timestamp;P1;durP1;ratioP1;P2;durP2;ratioP2
9970;SDS011;5026;51.494;11.974;2022-08-14T00:01:07;14.68;;;11.30;;
9970;SDS011;5026;51.494;11.974;2022-08-14T00:03:34;13.13;;;11.00;;
9970;SDS011;5026;51.494;11.974;2022-08-14T00:06:01;14.40;;;12.18;;
9970;SDS011;5026;51.494;11.974;2022-08-14T00:08:29;13.43;;;11.38;;
9970;SDS011;5026;51.494;11.974;2022-08-14T00:10:58;11.77;;;10.63;;
9970;SDS011;5026;51.494;11.974;2022-08-14T00:13:26;13.07;;;10.45;;
9970;SDS011;5026;51.494;11.974;2022-08-14T00:15:54;11.95;;;10.65;;
9970;SDS011;5026;51.494;11.974;2022-08-14T00:18:23;11.68;;;10.48;;
9970;SDS011;5026;51.494;11.974;2022-08-14T00:20:51;11.88;;;10.43;;
9970;SDS011;5026;51.494;11.974;2022-08-14T00:23:19;12.50;;;10.90;;
9970;SDS011;5026;51.494;11.974;2022-08-14T00:25:47;14.05;;;12.02;;
9970;SDS011;5026;51.494;11.974;2022-08-14T00:28:17;13.10;;;11.38;;
9970;SDS011;5026;51.494;11.974;2022-08-14T00:30:50;13.82;;;12.32;;
9970;SDS011;5026;51.494;11.974;2022-08-14T00:33:20;14.52;;;12.35;;
9970;SDS011;5026;51.494;11.974;2022-08-14T00:35:47;14.40;;;11.15;;
9970;SDS011;5026;51.494;11.974;2022-08-14T00:38:15;13.05;;;11.68;;
9970;SDS011;5026;51.494;11.974;2022-08-14T00:40:47;15.80;;;11.73;;
9970;SDS011;5026;51.494;11.974;2022-08-14T00:43:14;12.60;;;11.30;;
9970;SDS011;5026;51.494;11.974;2022-08-14T00:45:43;12.80;;;11.45;;
9970;SDS011;5026;51.494;11.974;2022-08-14T00:48:10;16.48;;;12.82;;
9970;SDS011;5026;51.494;11.974;2022-08-14T00:50:37;13.75;;;12.13;;
9970;SDS011;5026;51.494;11.974;2022-08-14T00:53:05;15.52;;;12.45;;
9970;SDS011;5026;51.494;11.974;2022-08-14T00:55:33;12.88;;;11.50;;
9970;SDS011;5026;51.494;11.974;2022-08-14T00:58:01;13.27;;;11.60;;
9970;SDS011;5026;51.494;11.974;2022-08-14T01:00:53;13.07;;;11.65;;
9970;SDS011;5026;51.494;11.974;2022-08-14T01:03:20;13.40;;;11.95;;
9970;SDS011;5026;51.494;11.974;2022-08-14T01:05:49;13.68;;;11.20;;
9970;SDS011;5026;51.494;11.974;2022-08-14T01:08:18;16.08;;;11.75;;
9970;SDS011;5026;51.494;11.974;2022-08-14T01:10:46;12.35;;;11.05;;
9970;SDS011;5026;51.494;11.974;2022-08-14T01:13:17;14.05;;;11.55;;
9970;SDS011;5026;51.494;11.974;2022-08-14T01:15:46;14.05;;;11.20;;
9970;SDS011;5026;51.494;11.974;2022-08-14T01:18:16;12.80;;;11.50;;
9970;SDS011;5026;51.494;11.974;2022-08-14T01:21:01;14.30;;;12.52;;
9970;SDS011;5026;51.494;11.974;2022-08-14T01:23:32;13.70;;;11.95;;
9970;SDS011;5026;51.494;11.974;2022-08-14T01:26:00;14.07;;;11.88;;
9970;SDS011;5026;51.494;11.974;2022-08-14T01:28:27;15.55;;;11.85;;
9970;SDS011;5026;51.494;11.974;2022-08-14T01:30:58;14.50;;;12.30;;
9970;SDS011;5026;51.494;11.974;2022-08-14T01:33:26;14.57;;;11.82;;
9970;SDS011;5026;51.494;11.974;2022-08-14T01:35:54;13.60;;;12.18;;
9970;SDS011;5026;51.494;11.974;2022-08-14T01:38:24;14.23;;;11.20;;
9970;SDS011;5026;51.494;11.974;2022-08-14T01:40:54;14.15;;;12.73;;
9970;SDS011;5026;51.494;11.974;2022-08-14T01:43:20;14.43;;;12.50;;
9970;SDS011;5026;51.494;11.974;2022-08-14T01:45:48;14.07;;;12.57;;
9970;SDS011;5026;51.494;11.974;2022-08-14T01:48:17;13.70;;;12.13;;
9970;SDS011;5026;51.494;11.974;2022-08-14T01:50:44;15.68;;;12.93;;
9970;SDS011;5026;51.494;11.974;2022-08-14T01:53:11;16.90;;;12.85;;
9970;SDS011;5026;51.494;11.974;2022-08-14T01:55:38;15.07;;;12.82;;
9970;SDS011;5026;51.494;11.974;2022-08-14T01:58:06;15.23;;;12.50;;
9970;SDS011;5026;51.494;11.974;2022-08-14T02:00:37;16.45;;;13.15;;
9970;SDS011;5026;51.494;11.974;2022-08-14T02:03:04;14.60;;;13.02;;
9970;SDS011;5026;51.494;11.974;2022-08-14T02:05:33;14.20;;;12.15;;
9970;SDS011;5026;51.494;11.974;2022-08-14T02:08:00;16.85;;;13.00;;
9970;SDS011;5026;51.494;11.974;2022-08-14T02:10:27;17.52;;;13.38;;
9970;SDS011;5026;51.494;11.974;2022-08-14T02:12:55;17.88;;;13.55;;
9970;SDS011;5026;51.494;11.974;2022-08-14T02:15:24;17.75;;;13.63;;
9970;SDS011;5026;51.494;11.974;2022-08-14T02:17:51;16.30;;;12.77;;
9970;SDS011;5026;51.494;11.974;2022-08-14T02:20:18;15.80;;;13.27;;
9970;SDS011;5026;51.494;11.974;2022-08-14T02:22:46;16.40;;;12.57;;
9970;SDS011;5026;51.494;11.974;2022-08-14T02:25:15;14.50;;;12.93;;
9970;SDS011;5026;51.494;11.974;2022-08-14T02:27:42;15.40;;;13.07;;
9970;SDS011;5026;51.494;11.974;2022-08-14T02:30:10;18.83;;;13.38;;
9970;SDS011;5026;51.494;11.974;2022-08-14T02:32:40;18.23;;;14.10;;
9970;SDS011;5026;51.494;11.974;2022-08-14T02:35:08;17.42;;;13.70;;
9970;SDS011;5026;51.494;11.974;2022-08-14T02:37:42;15.98;;;13.68;;
9970;SDS011;5026;51.494;11.974;2022-08-14T02:40:10;17.77;;;14.52;;
9970;SDS011;5026;51.494;11.974;2022-08-14T02:42:38;17.35;;;13.73;;
9970;SDS011;5026;51.494;11.974;2022-08-14T02:45:06;15.45;;;13.57;;
9970;SDS011;5026;51.494;11.974;2022-08-14T02:47:33;20.42;;;14.65;;
9970;SDS011;5026;51.494;11.974;2022-08-14T02:50:02;17.42;;;14.57;;
9970;SDS011;5026;51.494;11.974;2022-08-14T02:52:30;20.98;;;14.00;;
9970;SDS011;5026;51.494;11.974;2022-08-14T02:54:59;18.88;;;13.65;;
9970;SDS011;5026;51.494;11.974;2022-08-14T02:57:26;17.13;;;13.95;;
9970;SDS011;5026;51.494;11.974;2022-08-14T02:59:59;17.08;;;14.38;;
9970;SDS011;5026;51.494;11.974;2022-08-14T03:02:27;19.75;;;14.40;;
9970;SDS011;5026;51.494;11.974;2022-08-14T03:04:59;17.25;;;14.45;;
9970;SDS011;5026;51.494;11.974;2022-08-14T03:07:27;16.30;;;14.60;;
9970;SDS011;5026;51.494;11.974;2022-08-14T03:09:54;19.33;;;14.85;;
9970;SDS011;5026;51.494;11.974;2022-08-14T03:12:21;18.40;;;14.65;;
9970;SDS011;5026;51.494;11.974;2022-08-14T03:14:48;18.60;;;15.27;;
9970;SDS011;5026;51.494;11.974;2022-08-14T03:17:16;21.52;;;15.63;;
9970;SDS011;5026;51.494;11.974;2022-08-14T03:19:44;17.77;;;15.20;;
9970;SDS011;5026;51.494;11.974;2022-08-14T03:22:10;16.73;;;14.65;;
9970;SDS011;5026;51.494;11.974;2022-08-14T03:24:40;19.60;;;15.98;;
9970;SDS011;5026;51.494;11.974;2022-08-14T03:27:07;17.40;;;14.90;;
9970;SDS011;5026;51.494;11.974;2022-08-14T03:29:38;16.90;;;14.55;;
9970;SDS011;5026;51.494;11.974;2022-08-14T03:32:05;19.17;;;14.75;;
9970;SDS011;5026;51.494;11.974;2022-08-14T03:34:32;18.80;;;16.13;;
9970;SDS011;5026;51.494;11.974;2022-08-14T03:37:00;18.10;;;15.68;;
9970;SDS011;5026;51.494;11.974;2022-08-14T03:39:27;23.30;;;16.40;;
9970;SDS011;5026;51.494;11.974;2022-08-14T03:41:56;22.02;;;16.98;;
9970;SDS011;5026;51.494;11.974;2022-08-14T03:44:23;19.92;;;16.05;;
9970;SDS011;5026;51.494;11.974;2022-08-14T03:46:50;18.45;;;15.25;;
9970;SDS011;5026;51.494;11.974;2022-08-14T03:49:19;20.08;;;15.60;;
9970;SDS011;5026;51.494;11.974;2022-08-14T03:51:48;21.50;;;15.85;;
9970;SDS011;5026;51.494;11.974;2022-08-14T03:54:15;20.13;;;16.05;;
9970;SDS011;5026;51.494;11.974;2022-08-14T03:56:42;19.98;;;15.80;;
9970;SDS011;5026;51.494;11.974;2022-08-14T03:59:11;20.45;;;15.90;;
9970;SDS011;5026;51.494;11.974;2022-08-14T04:01:38;22.55;;;15.23;;
9970;SDS011;5026;51.494;11.974;2022-08-14T04:04:06;17.35;;;15.48;;
9970;SDS011;5026;51.494;11.974;2022-08-14T04:06:34;19.00;;;15.52;;
9970;SDS011;5026;51.494;11.974;2022-08-14T04:09:03;19.10;;;14.80;;
9970;SDS011;5026;51.494;11.974;2022-08-14T04:11:31;18.80;;;15.27;;
9970;SDS011;5026;51.494;11.974;2022-08-14T04:13:59;20.58;;;15.13;;
9970;SDS011;5026;51.494;11.974;2022-08-14T04:16:27;16.27;;;14.10;;
9970;SDS011;5026;51.494;11.974;2022-08-14T04:18:55;19.13;;;15.18;;
9970;SDS011;5026;51.494;11.974;2022-08-14T04:21:25;17.27;;;14.05;;
9970;SDS011;5026;51.494;11.974;2022-08-14T04:23:54;17.52;;;14.95;;
9970;SDS011;5026;51.494;11.974;2022-08-14T04:26:23;17.88;;;15.18;;
9970;SDS011;5026;51.494;11.974;2022-08-14T04:28:51;18.55;;;15.70;;
9970;SDS011;5026;51.494;11.974;2022-08-14T04:31:20;19.67;;;14.27;;
9970;SDS011;5026;51.494;11.974;2022-08-14T04:33:50;16.95;;;14.95;;
9970;SDS011;5026;51.494;11.974;2022-08-14T04:36:17;17.45;;;13.95;;
9970;SDS011;5026;51.494;11.974;2022-08-14T04:38:44;17.83;;;14.48;;
9970;SDS011;5026;51.494;11.974;2022-08-14T04:41:34;18.52;;;15.20;;
9970;SDS011;5026;51.494;11.974;2022-08-14T04:44:19;15.75;;;13.52;;
9970;SDS011;5026;51.494;11.974;2022-08-14T04:46:46;15.23;;;13.23;;
9970;SDS011;5026;51.494;11.974;2022-08-14T04:49:28;16.50;;;14.50;;
9970;SDS011;5026;51.494;11.974;2022-08-14T04:51:55;17.38;;;15.35;;
9970;SDS011;5026;51.494;11.974;2022-08-14T04:54:23;16.92;;;14.30;;
9970;SDS011;5026;51.494;11.974;2022-08-14T04:56:51;19.75;;;15.40;;
9970;SDS011;5026;51.494;11.974;2022-08-14T04:59:19;20.92;;;15.13;;
9970;SDS011;5026;51.494;11.974;2022-08-14T05:01:46;20.73;;;14.98;;
9970;SDS011;5026;51.494;11.974;2022-08-14T05:04:13;16.60;;;14.65;;
9970;SDS011;5026;51.494;11.974;2022-08-14T05:06:45;18.25;;;14.57;;
9970;SDS011;5026;51.494;11.974;2022-08-14T05:09:12;18.20;;;14.95;;
9970;SDS011;5026;51.494;11.974;2022-08-14T05:11:39;17.02;;;14.43;;
9970;SDS011;5026;51.494;11.974;2022-08-14T05:14:06;17.27;;;14.10;;
9970;SDS011;5026;51.494;11.974;2022-08-14T05:16:33;17.48;;;14.65;;
9970;SDS011;5026;51.494;11.974;2022-08-14T05:19:00;16.75;;;14.68;;
9970;SDS011;5026;51.494;11.974;2022-08-14T05:21:28;16.27;;;13.93;;
9970;SDS011;5026;51.494;11.974;2022-08-14T05:23:57;16.60;;;13.77;;
9970;SDS011;5026;51.494;11.974;2022-08-14T05:26:24;16.65;;;14.32;;
9970;SDS011;5026;51.494;11.974;2022-08-14T05:28:51;20.27;;;14.57;;
9970;SDS011;5026;51.494;11.974;2022-08-14T05:31:23;18.80;;;13.48;;
9970;SDS011;5026;51.494;11.974;2022-08-14T05:33:50;17.23;;;13.77;;
9970;SDS011;5026;51.494;11.974;2022-08-14T05:36:18;15.55;;;13.77;;
9970;SDS011;5026;51.494;11.974;2022-08-14T05:38:45;16.08;;;14.27;;
9970;SDS011;5026;51.494;11.974;2022-08-14T05:41:15;17.65;;;13.95;;
9970;SDS011;5026;51.494;11.974;2022-08-14T05:43:44;16.10;;;13.85;;
9970;SDS011;5026;51.494;11.974;2022-08-14T05:46:13;16.70;;;13.93;;
9970;SDS011;5026;51.494;11.974;2022-08-14T05:48:42;16.48;;;13.63;;
9970;SDS011;5026;51.494;11.974;2022-08-14T05:51:18;13.77;;;12.35;;
9970;SDS011;5026;51.494;11.974;2022-08-14T05:53:45;14.05;;;11.52;;
9970;SDS011;5026;51.494;11.974;2022-08-14T05:56:14;13.43;;;11.27;;
9970;SDS011;5026;51.494;11.974;2022-08-14T05:58:41;11.57;;;9.93;;
9970;SDS011;5026;51.494;11.974;2022-08-14T06:01:08;12.75;;;9.95;;
9970;SDS011;5026;51.494;11.974;2022-08-14T06:03:35;11.60;;;10.50;;
9970;SDS011;5026;51.494;11.974;2022-08-14T06:06:02;11.98;;;10.48;;
9970;SDS011;5026;51.494;11.974;2022-08-14T06:08:30;12.85;;;10.30;;
9970;SDS011;5026;51.494;11.974;2022-08-14T06:11:09;12.00;;;9.80;;
9970;SDS011;5026;51.494;11.974;2022-08-14T06:13:38;13.30;;;10.52;;
9970;SDS011;5026;51.494;11.974;2022-08-14T06:16:07;11.25;;;10.15;;
9970;SDS011;5026;51.494;11.974;2022-08-14T06:18:34;12.07;;;10.82;;
9970;SDS011;5026;51.494;11.974;2022-08-14T06:21:01;11.80;;;10.70;;
9970;SDS011;5026;51.494;11.974;2022-08-14T06:23:28;11.90;;;10.70;;
9970;SDS011;5026;51.494;11.974;2022-08-14T06:25:56;11.80;;;10.27;;
9970;SDS011;5026;51.494;11.974;2022-08-14T06:28:23;10.75;;;9.65;;
9970;SDS011;5026;51.494;11.974;2022-08-14T06:30:53;11.20;;;10.13;;
9970;SDS011;5026;51.494;11.974;2022-08-14T06:33:21;10.60;;;9.63;;
9970;SDS011;5026;51.494;11.974;2022-08-14T06:35:48;12.77;;;9.82;;
9970;SDS011;5026;51.494;11.974;2022-08-14T06:38:16;10.75;;;9.65;;
9970;SDS011;5026;51.494;11.974;2022-08-14T06:40:44;10.73;;;9.60;;
9970;SDS011;5026;51.494;11.974;2022-08-14T06:43:12;12.15;;;9.38;;
9970;SDS011;5026;51.494;11.974;2022-08-14T06:45:41;13.48;;;9.60;;
9970;SDS011;5026;51.494;11.974;2022-08-14T06:48:14;11.55;;;10.45;;
9970;SDS011;5026;51.494;11.974;2022-08-14T06:50:43;15.73;;;10.82;;
9970;SDS011;5026;51.494;11.974;2022-08-14T06:53:10;11.88;;;10.68;;
9970;SDS011;5026;51.494;11.974;2022-08-14T06:55:38;14.65;;;11.73;;
9970;SDS011;5026;51.494;11.974;2022-08-14T06:58:09;12.90;;;11.60;;
9970;SDS011;5026;51.494;11.974;2022-08-14T07:00:37;14.27;;;12.75;;
9970;SDS011;5026;51.494;11.974;2022-08-14T07:03:04;12.98;;;11.45;;
9970;SDS011;5026;51.494;11.974;2022-08-14T07:05:49;14.27;;;12.40;;
9970;SDS011;5026;51.494;11.974;2022-08-14T07:08:17;14.85;;;13.45;;
9970;SDS011;5026;51.494;11.974;2022-08-14T07:10:47;13.95;;;12.63;;
9970;SDS011;5026;51.494;11.974;2022-08-14T07:13:15;14.20;;;12.52;;
9970;SDS011;5026;51.494;11.974;2022-08-14T07:15:43;13.55;;;12.25;;
9970;SDS011;5026;51.494;11.974;2022-08-14T07:18:11;12.85;;;11.35;;
9970;SDS011;5026;51.494;11.974;2022-08-14T07:20:39;13.30;;;11.70;;
9970;SDS011;5026;51.494;11.974;2022-08-14T07:23:09;11.32;;;10.18;;
9970;SDS011;5026;51.494;11.974;2022-08-14T07:25:37;13.23;;;11.13;;
9970;SDS011;5026;51.494;11.974;2022-08-14T07:28:08;11.02;;;9.85;;
9970;SDS011;5026;51.494;11.974;2022-08-14T07:30:36;12.63;;;10.57;;
9970;SDS011;5026;51.494;11.974;2022-08-14T07:33:04;13.13;;;11.73;;
9970;SDS011;5026;51.494;11.974;2022-08-14T07:35:32;12.25;;;11.00;;
9970;SDS011;5026;51.494;11.974;2022-08-14T07:38:01;12.20;;;10.20;;
9970;SDS011;5026;51.494;11.974;2022-08-14T07:40:29;9.82;;;8.90;;
9970;SDS011;5026;51.494;11.974;2022-08-14T07:42:56;10.98;;;9.20;;
9970;SDS011;5026;51.494;11.974;2022-08-14T07:45:24;10.48;;;8.40;;
9970;SDS011;5026;51.494;11.974;2022-08-14T07:47:52;8.90;;;8.02;;
9970;SDS011;5026;51.494;11.974;2022-08-14T07:50:21;9.68;;;8.77;;
9970;SDS011;5026;51.494;11.974;2022-08-14T07:52:49;8.77;;;7.88;;
9970;SDS011;5026;51.494;11.974;2022-08-14T07:55:17;8.70;;;7.80;;
9970;SDS011;5026;51.494;11.974;2022-08-14T07:57:46;9.50;;;8.60;;
9970;SDS011;5026;51.494;11.974;2022-08-14T08:00:15;8.48;;;7.68;;
9970;SDS011;5026;51.494;11.974;2022-08-14T08:02:44;8.27;;;7.35;;
9970;SDS011;5026;51.494;11.974;2022-08-14T08:05:12;8.18;;;7.45;;
9970;SDS011;5026;51.494;11.974;2022-08-14T08:07:41;8.60;;;7.82;;
9970;SDS011;5026;51.494;11.974;2022-08-14T08:10:10;8.38;;;7.57;;
9970;SDS011;5026;51.494;11.974;2022-08-14T08:12:59;8.50;;;7.70;;
9970;SDS011;5026;51.494;11.974;2022-08-14T08:15:28;8.38;;;7.55;;
9970;SDS011;5026;51.494;11.974;2022-08-14T08:17:56;9.38;;;8.57;;
9970;SDS011;5026;51.494;11.974;2022-08-14T08:20:24;9.20;;;8.27;;
9970;SDS011;5026;51.494;11.974;2022-08-14T08:22:52;9.70;;;8.70;;
9970;SDS011;5026;51.494;11.974;2022-08-14T08:25:21;9.25;;;8.35;;
9970;SDS011;5026;51.494;11.974;2022-08-14T08:27:55;8.70;;;7.88;;
9970;SDS011;5026;51.494;11.974;2022-08-14T08:30:25;8.10;;;7.40;;
9970;SDS011;5026;51.494;11.974;2022-08-14T08:32:55;8.43;;;7.70;;
9970;SDS011;5026;51.494;11.974;2022-08-14T08:35:24;8.50;;;7.70;;
9970;SDS011;5026;51.494;11.974;2022-08-14T08:37:52;8.80;;;7.95;;
9970;SDS011;5026;51.494;11.974;2022-08-14T08:40:21;8.65;;;7.45;;
9970;SDS011;5026;51.494;11.974;2022-08-14T08:42:50;9.35;;;8.45;;
9970;SDS011;5026;51.494;11.974;2022-08-14T08:45:17;9.55;;;8.75;;
9970;SDS011;5026;51.494;11.974;2022-08-14T08:47:47;8.73;;;7.90;;
9970;SDS011;5026;51.494;11.974;2022-08-14T08:50:19;9.23;;;8.35;;
9970;SDS011;5026;51.494;11.974;2022-08-14T08:52:54;10.10;;;8.00;;
9970;SDS011;5026;51.494;11.974;2022-08-14T08:55:23;8.98;;;7.97;;
9970;SDS011;5026;51.494;11.974;2022-08-14T08:57:58;8.75;;;7.95;;
9970;SDS011;5026;51.494;11.974;2022-08-14T09:00:28;8.95;;;7.95;;
9970;SDS011;5026;51.494;11.974;2022-08-14T09:03:00;9.38;;;8.45;;
9970;SDS011;5026;51.494;11.974;2022-08-14T09:05:31;10.98;;;8.68;;
9970;SDS011;5026;51.494;11.974;2022-08-14T09:08:09;9.65;;;8.75;;
9970;SDS011;5026;51.494;11.974;2022-08-14T09:10:38;10.52;;;9.43;;
9970;SDS011;5026;51.494;11.974;2022-08-14T09:13:06;9.98;;;9.00;;
9970;SDS011;5026;51.494;11.974;2022-08-14T09:15:35;12.07;;;9.57;;
9970;SDS011;5026;51.494;11.974;2022-08-14T09:18:05;8.75;;;7.82;;
9970;SDS011;5026;51.494;11.974;2022-08-14T09:20:33;9.02;;;7.60;;
9970;SDS011;5026;51.494;11.974;2022-08-14T09:23:01;9.38;;;8.25;;
9970;SDS011;5026;51.494;11.974;2022-08-14T09:25:28;9.40;;;8.20;;
9970;SDS011;5026;51.494;11.974;2022-08-14T09:27:55;9.05;;;8.20;;
9970;SDS011;5026;51.494;11.974;2022-08-14T09:30:22;9.32;;;8.13;;
9970;SDS011;5026;51.494;11.974;2022-08-14T09:32:55;8.73;;;7.90;;
9970;SDS011;5026;51.494;11.974;2022-08-14T09:35:48;8.95;;;8.05;;
9970;SDS011;5026;51.494;11.974;2022-08-14T09:38:27;8.43;;;7.40;;
9970;SDS011;5026;51.494;11.974;2022-08-14T09:41:04;8.45;;;7.75;;
9970;SDS011;5026;51.494;11.974;2022-08-14T09:43:42;8.82;;;8.02;;
9970;SDS011;5026;51.494;11.974;2022-08-14T09:46:19;9.35;;;7.47;;
9970;SDS011;5026;51.494;11.974;2022-08-14T09:48:56;8.77;;;7.88;;
9970;SDS011;5026;51.494;11.974;2022-08-14T09:51:24;8.93;;;8.13;;
9970;SDS011;5026;51.494;11.974;2022-08-14T09:53:59;9.35;;;7.80;;
9970;SDS011;5026;51.494;11.974;2022-08-14T09:56:27;9.98;;;8.27;;
9970;SDS011;5026;51.494;11.974;2022-08-14T09:58:56;9.90;;;8.48;;
9970;SDS011;5026;51.494;11.974;2022-08-14T10:01:33;9.38;;;8.32;;
9970;SDS011;5026;51.494;11.974;2022-08-14T10:04:04;8.57;;;7.75;;
9970;SDS011;5026;51.494;11.974;2022-08-14T10:06:44;9.07;;;7.85;;
9970;SDS011;5026;51.494;11.974;2022-08-14T10:09:11;10.68;;;8.48;;
9970;SDS011;5026;51.494;11.974;2022-08-14T10:11:39;10.32;;;7.90;;
9970;SDS011;5026;51.494;11.974;2022-08-14T10:14:13;8.55;;;7.72;;
9970;SDS011;5026;51.494;11.974;2022-08-14T10:16:42;10.05;;;7.75;;
9970;SDS011;5026;51.494;11.974;2022-08-14T10:19:11;9.20;;;7.32;;
9970;SDS011;5026;51.494;11.974;2022-08-14T10:21:41;9.65;;;7.28;;
9970;SDS011;5026;51.494;11.974;2022-08-14T10:24:21;7.45;;;6.65;;
9970;SDS011;5026;51.494;11.974;2022-08-14T10:26:51;9.30;;;6.90;;
9970;SDS011;5026;51.494;11.974;2022-08-14T10:29:28;8.60;;;6.85;;
9970;SDS011;5026;51.494;11.974;2022-08-14T10:31:57;7.80;;;6.95;;
9970;SDS011;5026;51.494;11.974;2022-08-14T10:34:29;6.15;;;5.63;;
9970;SDS011;5026;51.494;11.974;2022-08-14T10:37:02;8.25;;;6.40;;
9970;SDS011;5026;51.494;11.974;2022-08-14T10:39:33;6.82;;;6.13;;
9970;SDS011;5026;51.494;11.974;2022-08-14T10:42:02;8.43;;;7.22;;
9970;SDS011;5026;51.494;11.974;2022-08-14T10:44:32;7.25;;;6.30;;
9970;SDS011;5026;51.494;11.974;2022-08-14T10:47:01;7.18;;;6.47;;
9970;SDS011;5026;51.494;11.974;2022-08-14T10:49:30;7.47;;;6.68;;
9970;SDS011;5026;51.494;11.974;2022-08-14T10:51:59;8.18;;;7.30;;
9970;SDS011;5026;51.494;11.974;2022-08-14T10:54:36;7.40;;;6.70;;
9970;SDS011;5026;51.494;11.974;2022-08-14T10:57:14;7.10;;;6.40;;
9970;SDS011;5026;51.494;11.974;2022-08-14T10:59:45;8.82;;;7.18;;
9970;SDS011;5026;51.494;11.974;2022-08-14T11:02:19;5.90;;;5.38;;
9970;SDS011;5026;51.494;11.974;2022-08-14T11:04:59;7.18;;;6.10;;
9970;SDS011;5026;51.494;11.974;2022-08-14T11:07:28;6.60;;;5.88;;
9970;SDS011;5026;51.494;11.974;2022-08-14T11:09:58;6.72;;;6.13;;
9970;SDS011;5026;51.494;11.974;2022-08-14T11:12:37;6.78;;;6.18;;
9970;SDS011;5026;51.494;11.974;2022-08-14T11:15:06;8.13;;;6.20;;
9970;SDS011;5026;51.494;11.974;2022-08-14T11:17:34;8.15;;;6.65;;
9970;SDS011;5026;51.494;11.974;2022-08-14T11:20:06;6.45;;;5.85;;
9970;SDS011;5026;51.494;11.974;2022-08-14T11:22:37;6.82;;;6.13;;
9970;SDS011;5026;51.494;11.974;2022-08-14T11:25:08;9.75;;;6.50;;
9970;SDS011;5026;51.494;11.974;2022-08-14T11:27:39;7.07;;;6.28;;
9970;SDS011;5026;51.494;11.974;2022-08-14T11:30:07;7.93;;;7.13;;
9970;SDS011;5026;51.494;11.974;2022-08-14T11:32:37;8.25;;;6.25;;
9970;SDS011;5026;51.494;11.974;2022-08-14T11:35:09;9.70;;;7.00;;
9970;SDS011;5026;51.494;11.974;2022-08-14T11:37:47;7.82;;;7.00;;
9970;SDS011;5026;51.494;11.974;2022-08-14T11:40:16;10.98;;;8.00;;
9970;SDS011;5026;51.494;11.974;2022-08-14T11:42:44;9.10;;;7.60;;
9970;SDS011;5026;51.494;11.974;2022-08-14T11:45:12;9.93;;;7.13;;
9970;SDS011;5026;51.494;11.974;2022-08-14T11:47:40;8.30;;;7.43;;
9970;SDS011;5026;51.494;11.974;2022-08-14T11:50:11;8.18;;;7.38;;
9970;SDS011;5026;51.494;11.974;2022-08-14T11:52:40;7.97;;;7.18;;
9970;SDS011;5026;51.494;11.974;2022-08-14T11:55:07;7.80;;;7.10;;
9970;SDS011;5026;51.494;11.974;2022-08-14T11:57:38;8.25;;;7.45;;
9970;SDS011;5026;51.494;11.974;2022-08-14T12:00:06;7.55;;;6.93;;
9970;SDS011;5026;51.494;11.974;2022-08-14T12:02:35;7.93;;;7.13;;
9970;SDS011;5026;51.494;11.974;2022-08-14T12:05:02;10.30;;;7.30;;
9970;SDS011;5026;51.494;11.974;2022-08-14T12:07:30;7.75;;;7.03;;
9970;SDS011;5026;51.494;11.974;2022-08-14T12:09:57;7.80;;;7.10;;
9970;SDS011;5026;51.494;11.974;2022-08-14T12:12:25;8.23;;;7.43;;
9970;SDS011;5026;51.494;11.974;2022-08-14T12:14:56;8.43;;;7.53;;
9970;SDS011;5026;51.494;11.974;2022-08-14T12:17:24;7.95;;;7.25;;
9970;SDS011;5026;51.494;11.974;2022-08-14T12:19:52;7.63;;;7.00;;
9970;SDS011;5026;51.494;11.974;2022-08-14T12:22:33;7.90;;;7.13;;
9970;SDS011;5026;51.494;11.974;2022-08-14T12:25:01;8.07;;;7.28;;
9970;SDS011;5026;51.494;11.974;2022-08-14T12:27:36;7.65;;;6.90;;
9970;SDS011;5026;51.494;11.974;2022-08-14T12:30:07;9.25;;;6.50;;
9970;SDS011;5026;51.494;11.974;2022-08-14T12:32:41;10.13;;;6.63;;
9970;SDS011;5026;51.494;11.974;2022-08-14T12:35:11;7.75;;;7.10;;
9970;SDS011;5026;51.494;11.974;2022-08-14T12:37:45;7.97;;;7.18;;
9970;SDS011;5026;51.494;11.974;2022-08-14T12:40:14;7.22;;;6.53;;
9970;SDS011;5026;51.494;11.974;2022-08-14T12:42:42;7.50;;;6.80;;
9970;SDS011;5026;51.494;11.974;2022-08-14T12:45:11;7.85;;;7.00;;
9970;SDS011;5026;51.494;11.974;2022-08-14T12:47:38;7.20;;;6.50;;
9970;SDS011;5026;51.494;11.974;2022-08-14T12:50:06;7.68;;;6.97;;
9970;SDS011;5026;51.494;11.974;2022-08-14T12:52:35;8.40;;;7.60;;
9970;SDS011;5026;51.494;11.974;2022-08-14T12:55:05;6.75;;;6.22;;
9970;SDS011;5026;51.494;11.974;2022-08-14T12:57:35;9.80;;;7.13;;
9970;SDS011;5026;51.494;11.974;2022-08-14T13:00:08;7.03;;;6.35;;
9970;SDS011;5026;51.494;11.974;2022-08-14T13:02:41;7.65;;;6.90;;
9970;SDS011;5026;51.494;11.974;2022-08-14T13:05:10;7.53;;;6.90;;
9970;SDS011;5026;51.494;11.974;2022-08-14T13:07:39;7.05;;;6.40;;
9970;SDS011;5026;51.494;11.974;2022-08-14T13:10:07;7.78;;;6.68;;
9970;SDS011;5026;51.494;11.974;2022-08-14T13:12:36;6.20;;;5.70;;
9970;SDS011;5026;51.494;11.974;2022-08-14T13:15:04;7.20;;;6.30;;
9970;SDS011;5026;51.494;11.974;2022-08-14T13:17:38;6.97;;;6.38;;
9970;SDS011;5026;51.494;11.974;2022-08-14T13:20:07;6.82;;;6.10;;
9970;SDS011;5026;51.494;11.974;2022-08-14T13:22:36;7.75;;;6.07;;
9970;SDS011;5026;51.494;11.974;2022-08-14T13:25:06;6.60;;;6.00;;
9970;SDS011;5026;51.494;11.974;2022-08-14T13:27:34;8.63;;;6.05;;
9970;SDS011;5026;51.494;11.974;2022-08-14T13:30:02;7.20;;;6.10;;
9970;SDS011;5026;51.494;11.974;2022-08-14T13:32:31;7.10;;;6.40;;
9970;SDS011;5026;51.494;11.974;2022-08-14T13:35:05;11.43;;;5.88;;
9970;SDS011;5026;51.494;11.974;2022-08-14T13:37:33;7.15;;;6.13;;
9970;SDS011;5026;51.494;11.974;2022-08-14T13:40:00;7.93;;;5.88;;
9970;SDS011;5026;51.494;11.974;2022-08-14T13:42:27;6.63;;;6.03;;
9970;SDS011;5026;51.494;11.974;2022-08-14T13:44:54;7.25;;;6.28;;
9970;SDS011;5026;51.494;11.974;2022-08-14T13:47:24;6.75;;;6.15;;
9970;SDS011;5026;51.494;11.974;2022-08-14T13:49:54;6.18;;;5.68;;
9970;SDS011;5026;51.494;11.974;2022-08-14T13:52:24;6.20;;;5.60;;
9970;SDS011;5026;51.494;11.974;2022-08-14T13:54:52;7.28;;;6.38;;
9970;SDS011;5026;51.494;11.974;2022-08-14T13:57:21;7.40;;;5.82;;
9970;SDS011;5026;51.494;11.974;2022-08-14T13:59:49;5.72;;;5.30;;
9970;SDS011;5026;51.494;11.974;2022-08-14T14:02:17;6.18;;;5.68;;
9970;SDS011;5026;51.494;11.974;2022-08-14T14:04:46;6.43;;;5.78;;
9970;SDS011;5026;51.494;11.974;2022-08-14T14:07:14;6.35;;;5.75;;
9970;SDS011;5026;51.494;11.974;2022-08-14T14:09:47;7.35;;;6.20;;
9970;SDS011;5026;51.494;11.974;2022-08-14T14:12:14;6.55;;;6.05;;
9970;SDS011;5026;51.494;11.974;2022-08-14T14:14:42;6.93;;;5.78;;
9970;SDS011;5026;51.494;11.974;2022-08-14T14:17:11;6.80;;;6.20;;
9970;SDS011;5026;51.494;11.974;2022-08-14T14:19:39;6.72;;;6.13;;
9970;SDS011;5026;51.494;11.974;2022-08-14T14:22:11;7.70;;;6.65;;
9970;SDS011;5026;51.494;11.974;2022-08-14T14:24:40;7.47;;;6.05;;
9970;SDS011;5026;51.494;11.974;2022-08-14T14:27:09;6.97;;;6.38;;
9970;SDS011;5026;51.494;11.974;2022-08-14T14:29:38;6.97;;;6.32;;
9970;SDS011;5026;51.494;11.974;2022-08-14T14:32:10;6.35;;;5.80;;
9970;SDS011;5026;51.494;11.974;2022-08-14T14:34:38;6.75;;;6.15;;
9970;SDS011;5026;51.494;11.974;2022-08-14T14:37:06;6.72;;;6.13;;
9970;SDS011;5026;51.494;11.974;2022-08-14T14:39:40;6.80;;;6.18;;
9970;SDS011;5026;51.494;11.974;2022-08-14T14:42:10;7.07;;;6.38;;
9970;SDS011;5026;51.494;11.974;2022-08-14T14:44:39;7.22;;;6.63;;
9970;SDS011;5026;51.494;11.974;2022-08-14T14:47:10;6.63;;;6.03;;
9970;SDS011;5026;51.494;11.974;2022-08-14T14:49:40;8.15;;;6.15;;
9970;SDS011;5026;51.494;11.974;2022-08-14T14:52:08;7.20;;;6.60;;
9970;SDS011;5026;51.494;11.974;2022-08-14T14:54:35;6.57;;;6.05;;
9970;SDS011;5026;51.494;11.974;2022-08-14T14:57:03;8.27;;;6.20;;
9970;SDS011;5026;51.494;11.974;2022-08-14T14:59:33;7.60;;;6.30;;
9970;SDS011;5026;51.494;11.974;2022-08-14T15:02:02;6.65;;;6.15;;